sensor_id;sensor_type;location;lat;lon;timestamp;pressure;altitude;pressure_sealevel;temperature;humidity
74678;BME280;67324;56.326;43.982;2023-05-10T00:01:03;101737.84;;;16.25;41.54
74678;BME280;67324;56.326;43.982;2023-05-10T00:03:29;101731.00;;;16.22;41.53
74678;BME280;67324;56.326;43.982;2023-05-10T00:05:55;101730.00;;;16.25;41.64
74678;BME280;67324;56.326;43.982;2023-05-10T00:08:21;101730.84;;;16.25;41.62
74678;BME280;67324;56.326;43.982;2023-05-10T00:10:47;101731.88;;;16.23;41.58
74678;BME280;67324;56.326;43.982;2023-05-10T00:13:13;101720.66;;;16.21;41.65
74678;BME280;67324;56.326;43.982;2023-05-10T00:15:39;101723.16;;;16.22;41.65
74678;BME280;67324;56.326;43.982;2023-05-10T00:18:05;101730.91;;;16.24;41.55
74678;BME280;67324;56.326;43.982;2023-05-10T00:20:30;101728.59;;;16.19;41.54
74678;BME280;67324;56.326;43.982;2023-05-10T00:22:56;101727.66;;;16.20;41.67
74678;BME280;67324;56.326;43.982;2023-05-10T00:25:22;101726.66;;;16.23;41.60
74678;BME280;67324;56.326;43.982;2023-05-10T00:27:48;101726.81;;;16.20;41.63
74678;BME280;67324;56.326;43.982;2023-05-10T00:30:15;101726.66;;;16.23;41.61
74678;BME280;67324;56.326;43.982;2023-05-10T00:32:41;101728.38;;;16.22;41.63
74678;BME280;67324;56.326;43.982;2023-05-10T00:35:07;101734.56;;;16.21;41.62
74678;BME280;67324;56.326;43.982;2023-05-10T00:37:33;101731.13;;;16.21;41.54
74678;BME280;67324;56.326;43.982;2023-05-10T00:39:59;101736.22;;;16.22;41.55
74678;BME280;67324;56.326;43.982;2023-05-10T00:42:26;101732.78;;;16.22;41.61
74678;BME280;67324;56.326;43.982;2023-05-10T00:44:53;101716.47;;;16.18;41.55
74678;BME280;67324;56.326;43.982;2023-05-10T00:47:19;101719.91;;;16.19;41.59
74678;BME280;67324;56.326;43.982;2023-05-10T00:49:45;101723.34;;;16.19;41.61
74678;BME280;67324;56.326;43.982;2023-05-10T00:52:11;101723.47;;;16.18;41.64
74678;BME280;67324;56.326;43.982;2023-05-10T00:54:37;101721.69;;;16.18;41.71
74678;BME280;67324;56.326;43.982;2023-05-10T00:57:04;101727.75;;;16.19;41.65
74678;BME280;67324;56.326;43.982;2023-05-10T00:59:29;101719.91;;;16.19;41.61
74678;BME280;67324;56.326;43.982;2023-05-10T01:01:57;101717.38;;;16.17;41.50
74678;BME280;67324;56.326;43.982;2023-05-10T01:04:23;101724.31;;;16.18;41.58
74678;BME280;67324;56.326;43.982;2023-05-10T01:06:52;101730.34;;;16.19;41.63
74678;BME280;67324;56.326;43.982;2023-05-10T01:09:20;101722.53;;;16.19;41.64
74678;BME280;67324;56.326;43.982;2023-05-10T01:11:47;101727.75;;;16.19;41.59
74678;BME280;67324;56.326;43.982;2023-05-10T01:14:15;101726.16;;;16.16;41.70
74678;BME280;67324;56.326;43.982;2023-05-10T01:16:44;101731.38;;;16.16;41.64
74678;BME280;67324;56.326;43.982;2023-05-10T01:19:21;101740.81;;;16.19;41.72
74678;BME280;67324;56.326;43.982;2023-05-10T01:27:51;101731.38;;;16.16;41.61
74678;BME280;67324;56.326;43.982;2023-05-10T01:38:53;101714.22;;;16.12;41.63
74678;BME280;67324;56.326;43.982;2023-05-10T01:41:48;101717.56;;;16.14;41.66
74678;BME280;67324;56.326;43.982;2023-05-10T01:44:21;101721.97;;;16.13;41.66
74678;BME280;67324;56.326;43.982;2023-05-10T01:46:57;101721.00;;;16.14;41.74
74678;BME280;67324;56.326;43.982;2023-05-10T01:49:34;101718.59;;;16.11;41.73
74678;BME280;67324;56.326;43.982;2023-05-10T01:52:09;101716.56;;;16.17;41.64
74678;BME280;67324;56.326;43.982;2023-05-10T01:54:37;101722.03;;;16.12;41.70
74678;BME280;67324;56.326;43.982;2023-05-10T01:57:26;101725.41;;;16.14;41.76
74678;BME280;67324;56.326;43.982;2023-05-10T01:59:53;101717.00;;;16.09;41.71
74678;BME280;67324;56.326;43.982;2023-05-10T02:02:21;101729.78;;;16.13;41.78
74678;BME280;67324;56.326;43.982;2023-05-10T02:04:49;101731.56;;;16.13;41.71
74678;BME280;67324;56.326;43.982;2023-05-10T02:07:15;101723.75;;;16.13;41.70
74678;BME280;67324;56.326;43.982;2023-05-10T02:09:44;101727.19;;;16.13;41.73
74678;BME280;67324;56.326;43.982;2023-05-10T02:12:14;101711.78;;;16.09;41.69
74678;BME280;67324;56.326;43.982;2023-05-10T02:14:42;101728.19;;;16.11;41.76
74678;BME280;67324;56.326;43.982;2023-05-10T02:17:09;101715.91;;;16.13;41.72
74678;BME280;67324;56.326;43.982;2023-05-10T02:19:40;101712.53;;;16.11;41.64
74678;BME280;67324;56.326;43.982;2023-05-10T02:22:08;101708.25;;;16.10;41.73
74678;BME280;67324;56.326;43.982;2023-05-10T02:24:36;101703.97;;;16.09;41.63
74678;BME280;67324;56.326;43.982;2023-05-10T02:27:03;101716.75;;;16.13;41.75
74678;BME280;67324;56.326;43.982;2023-05-10T02:29:30;101703.03;;;16.10;41.76
74678;BME280;67324;56.326;43.982;2023-05-10T02:31:57;101716.81;;;16.12;41.68
74678;BME280;67324;56.326;43.982;2023-05-10T02:34:27;101711.72;;;16.10;41.60
74678;BME280;67324;56.326;43.982;2023-05-10T02:36:55;101700.50;;;16.08;41.70
74678;BME280;67324;56.326;43.982;2023-05-10T02:39:22;101704.78;;;16.09;41.69
74678;BME280;67324;56.326;43.982;2023-05-10T02:41:51;101704.78;;;16.09;41.79
74678;BME280;67324;56.326;43.982;2023-05-10T02:44:19;101713.38;;;16.11;41.77
74678;BME280;67324;56.326;43.982;2023-05-10T02:46:46;101704.72;;;16.11;41.74
74678;BME280;67324;56.326;43.982;2023-05-10T02:49:15;101705.47;;;16.13;41.69
74678;BME280;67324;56.326;43.982;2023-05-10T02:51:46;101697.81;;;16.10;41.79
74678;BME280;67324;56.326;43.982;2023-05-10T02:54:19;101688.09;;;16.12;41.65
74678;BME280;67324;56.326;43.982;2023-05-10T02:56:57;101700.25;;;16.13;41.76
74678;BME280;67324;56.326;43.982;2023-05-10T02:59:23;101696.88;;;16.11;41.62
74678;BME280;67324;56.326;43.982;2023-05-10T03:01:49;101703.69;;;16.13;41.80
74678;BME280;67324;56.326;43.982;2023-05-10T03:04:15;101700.25;;;16.13;41.72
74678;BME280;67324;56.326;43.982;2023-05-10T03:06:41;101698.53;;;16.12;41.63
74678;BME280;67324;56.326;43.982;2023-05-10T03:09:08;101696.81;;;16.12;41.61
74678;BME280;67324;56.326;43.982;2023-05-10T03:17:08;101704.63;;;16.12;41.58
74678;BME280;67324;56.326;43.982;2023-05-10T03:19:45;101703.75;;;16.12;41.72
74678;BME280;67324;56.326;43.982;2023-05-10T03:22:20;101705.66;;;16.10;41.72
74678;BME280;67324;56.326;43.982;2023-05-10T03:24:48;101694.34;;;16.09;41.67
74678;BME280;67324;56.326;43.982;2023-05-10T03:27:15;101693.63;;;16.07;41.63
74678;BME280;67324;56.326;43.982;2023-05-10T03:29:43;101691.75;;;16.09;41.73
74678;BME280;67324;56.326;43.982;2023-05-10T03:32:30;101686.63;;;16.08;41.71
74678;BME280;67324;56.326;43.982;2023-05-10T03:35:00;101691.00;;;16.07;41.69
74678;BME280;67324;56.326;43.982;2023-05-10T03:37:29;101694.47;;;16.08;41.58
74678;BME280;67324;56.326;43.982;2023-05-10T03:39:55;101692.50;;;16.11;41.64
74678;BME280;67324;56.326;43.982;2023-05-10T03:42:21;101684.09;;;16.06;41.57
74678;BME280;67324;56.326;43.982;2023-05-10T03:44:47;101692.50;;;16.11;41.67
74678;BME280;67324;56.326;43.982;2023-05-10T03:47:14;101680.56;;;16.07;41.71
74678;BME280;67324;56.326;43.982;2023-05-10T03:49:40;101684.78;;;16.10;41.65
74678;BME280;67324;56.326;43.982;2023-05-10T03:52:07;101685.59;;;16.10;41.75
74678;BME280;67324;56.326;43.982;2023-05-10T03:54:33;101687.47;;;16.08;41.76
74678;BME280;67324;56.326;43.982;2023-05-10T03:56:59;101679.81;;;16.05;41.76
74678;BME280;67324;56.326;43.982;2023-05-10T03:59:26;101683.91;;;16.09;41.66
74678;BME280;67324;56.326;43.982;2023-05-10T04:01:52;101683.25;;;16.06;41.74
74678;BME280;67324;56.326;43.982;2023-05-10T04:04:18;101682.31;;;16.07;41.68
74678;BME280;67324;56.326;43.982;2023-05-10T04:06:48;101686.50;;;16.09;41.62
74678;BME280;67324;56.326;43.982;2023-05-10T04:09:14;101685.69;;;16.09;41.67
74678;BME280;67324;56.326;43.982;2023-05-10T04:11:40;101685.69;;;16.09;41.66
74678;BME280;67324;56.326;43.982;2023-05-10T04:14:05;101678.88;;;16.06;41.68
74678;BME280;67324;56.326;43.982;2023-05-10T04:16:31;101682.25;;;16.08;41.64
74678;BME280;67324;56.326;43.982;2023-05-10T04:18:57;101687.47;;;16.08;41.63
74678;BME280;67324;56.326;43.982;2023-05-10T04:21:23;101677.22;;;16.05;41.73
74678;BME280;67324;56.326;43.982;2023-05-10T04:23:49;101682.31;;;16.07;41.67
74678;BME280;67324;56.326;43.982;2023-05-10T04:26:15;101681.50;;;16.06;41.77
74678;BME280;67324;56.326;43.982;2023-05-10T04:28:41;101689.31;;;16.06;41.75
74678;BME280;67324;56.326;43.982;2023-05-10T04:31:09;101692.00;;;16.05;41.66
74678;BME280;67324;56.326;43.982;2023-05-10T04:33:35;101678.13;;;16.04;41.61
74678;BME280;67324;56.326;43.982;2023-05-10T04:36:02;101691.00;;;16.07;41.74
74678;BME280;67324;56.326;43.982;2023-05-10T04:38:29;101689.31;;;16.06;41.69
74678;BME280;67324;56.326;43.982;2023-05-10T04:41:04;101690.16;;;16.07;41.69
74678;BME280;67324;56.326;43.982;2023-05-10T04:43:30;101678.13;;;16.04;41.64
74678;BME280;67324;56.326;43.982;2023-05-10T04:45:56;101692.75;;;16.07;41.54
74678;BME280;67324;56.326;43.982;2023-05-10T04:48:22;101679.91;;;16.04;41.64
74678;BME280;67324;56.326;43.982;2023-05-10T04:50:48;101684.94;;;16.07;41.63
74678;BME280;67324;56.326;43.982;2023-05-10T04:53:14;101684.94;;;16.07;41.64
74678;BME280;67324;56.326;43.982;2023-05-10T04:55:40;101675.50;;;16.04;41.69
74678;BME280;67324;56.326;43.982;2023-05-10T04:58:06;101677.97;;;16.07;41.68
74678;BME280;67324;56.326;43.982;2023-05-10T05:00:51;101674.59;;;16.05;41.70
74678;BME280;67324;56.326;43.982;2023-05-10T05:03:17;101672.81;;;16.06;41.65
74678;BME280;67324;56.326;43.982;2023-05-10T05:05:43;101669.53;;;16.02;41.73
74678;BME280;67324;56.326;43.982;2023-05-10T05:08:10;101667.59;;;16.06;41.69
74678;BME280;67324;56.326;43.982;2023-05-10T05:10:36;101680.66;;;16.06;41.77
74678;BME280;67324;56.326;43.982;2023-05-10T05:13:01;101672.81;;;16.06;41.67
74678;BME280;67324;56.326;43.982;2023-05-10T05:15:27;101668.44;;;16.06;41.69
74678;BME280;67324;56.326;43.982;2023-05-10T05:17:53;101663.22;;;16.06;41.64
74678;BME280;67324;56.326;43.982;2023-05-10T05:20:19;101665.00;;;16.06;41.63
74678;BME280;67324;56.326;43.982;2023-05-10T05:22:45;101669.28;;;16.07;41.75
74678;BME280;67324;56.326;43.982;2023-05-10T05:25:11;101660.69;;;16.05;41.60
74678;BME280;67324;56.326;43.982;2023-05-10T05:27:38;101659.03;;;16.04;41.65
74678;BME280;67324;56.326;43.982;2023-05-10T05:30:04;101655.47;;;16.05;41.77
74678;BME280;67324;56.326;43.982;2023-05-10T05:32:30;101651.38;;;16.01;41.66
74678;BME280;67324;56.326;43.982;2023-05-10T05:34:56;101662.38;;;16.06;41.64
74678;BME280;67324;56.326;43.982;2023-05-10T05:37:22;101654.75;;;16.03;41.69
74678;BME280;67324;56.326;43.982;2023-05-10T05:39:50;101647.94;;;16.00;41.68
74678;BME280;67324;56.326;43.982;2023-05-10T05:42:15;101646.91;;;16.03;41.68
74678;BME280;67324;56.326;43.982;2023-05-10T05:44:43;101646.91;;;16.03;41.66
74678;BME280;67324;56.326;43.982;2023-05-10T05:47:09;101640.00;;;16.02;41.67
74678;BME280;67324;56.326;43.982;2023-05-10T05:49:36;101647.63;;;16.05;41.70
74678;BME280;67324;56.326;43.982;2023-05-10T05:52:03;101641.69;;;16.03;41.70
74678;BME280;67324;56.326;43.982;2023-05-10T05:54:30;101641.69;;;16.03;41.67
74678;BME280;67324;56.326;43.982;2023-05-10T05:56:57;101639.16;;;16.01;41.63
74678;BME280;67324;56.326;43.982;2023-05-10T05:59:24;101641.59;;;16.04;41.67
74678;BME280;67324;56.326;43.982;2023-05-10T06:01:50;101643.38;;;16.04;41.68
74678;BME280;67324;56.326;43.982;2023-05-10T06:04:17;101642.41;;;16.05;41.69
74678;BME280;67324;56.326;43.982;2023-05-10T06:06:43;101636.38;;;16.04;41.67
74678;BME280;67324;56.326;43.982;2023-05-10T06:09:09;101630.22;;;16.05;41.69
74678;BME280;67324;56.326;43.982;2023-05-10T06:11:35;101631.25;;;16.03;41.68
74678;BME280;67324;56.326;43.982;2023-05-10T06:14:03;101630.31;;;16.04;41.65
74678;BME280;67324;56.326;43.982;2023-05-10T06:16:34;101616.50;;;16.02;41.59
74678;BME280;67324;56.326;43.982;2023-05-10T06:19:00;101633.69;;;16.06;41.69
74678;BME280;67324;56.326;43.982;2023-05-10T06:21:26;101622.56;;;16.02;41.55
74678;BME280;67324;56.326;43.982;2023-05-10T06:23:52;101619.94;;;16.02;41.68
74678;BME280;67324;56.326;43.982;2023-05-10T06:26:18;101633.69;;;16.06;41.68
74678;BME280;67324;56.326;43.982;2023-05-10T06:28:44;101623.22;;;16.06;41.65
74678;BME280;67324;56.326;43.982;2023-05-10T06:31:10;101632.84;;;16.05;41.60
74678;BME280;67324;56.326;43.982;2023-05-10T06:33:37;101628.44;;;16.06;41.57
74678;BME280;67324;56.326;43.982;2023-05-10T06:36:03;101617.44;;;16.01;41.70
74678;BME280;67324;56.326;43.982;2023-05-10T06:38:29;101622.28;;;16.07;41.62
74678;BME280;67324;56.326;43.982;2023-05-10T06:40:55;101617.06;;;16.07;41.61
74678;BME280;67324;56.326;43.982;2023-05-10T06:43:39;101616.25;;;16.06;41.59
74678;BME280;67324;56.326;43.982;2023-05-10T06:46:07;101608.47;;;16.05;41.65
74678;BME280;67324;56.326;43.982;2023-05-10T06:48:33;101602.53;;;16.03;41.60
74678;BME280;67324;56.326;43.982;2023-05-10T06:51:00;101612.72;;;16.07;41.71
74678;BME280;67324;56.326;43.982;2023-05-10T06:53:26;101606.63;;;16.07;41.67
74678;BME280;67324;56.326;43.982;2023-05-10T06:55:52;101599.00;;;16.04;41.71
74678;BME280;67324;56.326;43.982;2023-05-10T06:58:18;101605.78;;;16.06;41.71
74678;BME280;67324;56.326;43.982;2023-05-10T07:00:44;101603.28;;;16.05;41.67
74678;BME280;67324;56.326;43.982;2023-05-10T07:03:11;101604.88;;;16.07;41.61
74678;BME280;67324;56.326;43.982;2023-05-10T07:05:37;101599.00;;;16.04;41.61
74678;BME280;67324;56.326;43.982;2023-05-10T07:08:03;101601.59;;;16.04;41.66
74678;BME280;67324;56.326;43.982;2023-05-10T07:10:30;101599.66;;;16.07;41.62
74678;BME280;67324;56.326;43.982;2023-05-10T07:12:56;101604.78;;;16.09;41.70
74678;BME280;67324;56.326;43.982;2023-05-10T07:15:22;101594.53;;;16.06;41.60
74678;BME280;67324;56.326;43.982;2023-05-10T07:17:48;101600.50;;;16.08;41.73
74678;BME280;67324;56.326;43.982;2023-05-10T07:20:14;101588.47;;;16.05;41.68
74678;BME280;67324;56.326;43.982;2023-05-10T07:22:40;101592.66;;;16.08;41.58
74678;BME280;67324;56.326;43.982;2023-05-10T07:25:06;101585.75;;;16.07;41.58
74678;BME280;67324;56.326;43.982;2023-05-10T07:27:33;101591.63;;;16.10;41.59
74678;BME280;67324;56.326;43.982;2023-05-10T07:29:59;101584.72;;;16.09;41.58
74678;BME280;67324;56.326;43.982;2023-05-10T07:32:26;101588.91;;;16.12;41.64
74678;BME280;67324;56.326;43.982;2023-05-10T07:34:52;101582.22;;;16.08;41.55
74678;BME280;67324;56.326;43.982;2023-05-10T07:37:18;101595.91;;;16.11;41.70
74678;BME280;67324;56.326;43.982;2023-05-10T07:39:44;101583.69;;;16.12;41.49
74678;BME280;67324;56.326;43.982;2023-05-10T07:42:10;101579.34;;;16.12;41.61
74678;BME280;67324;56.326;43.982;2023-05-10T07:44:36;101576.91;;;16.09;41.59
74678;BME280;67324;56.326;43.982;2023-05-10T07:47:02;101570.56;;;16.13;41.51
74678;BME280;67324;56.326;43.982;2023-05-10T07:49:28;101566.38;;;16.11;41.62
74678;BME280;67324;56.326;43.982;2023-05-10T07:51:53;101568.78;;;16.14;41.61
74678;BME280;67324;56.326;43.982;2023-05-10T07:54:19;101574.00;;;16.14;41.66
74678;BME280;67324;56.326;43.982;2023-05-10T07:56:46;101572.22;;;16.14;41.52
74678;BME280;67324;56.326;43.982;2023-05-10T07:59:17;101567.88;;;16.15;41.57
74678;BME280;67324;56.326;43.982;2023-05-10T08:01:44;101567.88;;;16.15;41.54
74678;BME280;67324;56.326;43.982;2023-05-10T08:04:10;101568.59;;;16.17;41.54
74678;BME280;67324;56.326;43.982;2023-05-10T08:06:37;101561.63;;;16.18;41.56
74678;BME280;67324;56.326;43.982;2023-05-10T08:09:03;101555.66;;;16.15;41.50
74678;BME280;67324;56.326;43.982;2023-05-10T08:11:48;101567.69;;;16.18;41.59
74678;BME280;67324;56.326;43.982;2023-05-10T08:14:14;101544.25;;;16.17;41.48
74678;BME280;67324;56.326;43.982;2023-05-10T08:16:40;101546.69;;;16.20;41.58
74678;BME280;67324;56.326;43.982;2023-05-10T08:19:06;101546.78;;;16.18;41.62
74678;BME280;67324;56.326;43.982;2023-05-10T08:21:32;101556.22;;;16.21;41.56
74678;BME280;67324;56.326;43.982;2023-05-10T08:23:58;101552.84;;;16.19;41.65
74678;BME280;67324;56.326;43.982;2023-05-10T08:26:24;101542.41;;;16.19;41.64
74678;BME280;67324;56.326;43.982;2023-05-10T08:28:50;101535.41;;;16.19;41.67
74678;BME280;67324;56.326;43.982;2023-05-10T08:31:15;101549.94;;;16.23;41.50
74678;BME280;67324;56.326;43.982;2023-05-10T08:33:42;101556.00;;;16.24;41.54
74678;BME280;67324;56.326;43.982;2023-05-10T08:36:08;101551.63;;;16.24;41.49
74678;BME280;67324;56.326;43.982;2023-05-10T08:38:34;101538.75;;;16.21;41.51
74678;BME280;67324;56.326;43.982;2023-05-10T08:41:02;101547.25;;;16.25;41.48
74678;BME280;67324;56.326;43.982;2023-05-10T08:43:47;101540.34;;;16.24;41.45
74678;BME280;67324;56.326;43.982;2023-05-10T08:46:17;101541.00;;;16.27;41.48
74678;BME280;67324;56.326;43.982;2023-05-10T08:48:49;101542.75;;;16.27;41.45
74678;BME280;67324;56.326;43.982;2023-05-10T08:51:23;101537.53;;;16.27;41.48
74678;BME280;67324;56.326;43.982;2023-05-10T08:53:52;101529.63;;;16.28;41.50
74678;BME280;67324;56.326;43.982;2023-05-10T08:56:18;101523.56;;;16.28;41.37
74678;BME280;67324;56.326;43.982;2023-05-10T08:58:47;101532.22;;;16.28;41.56
74678;BME280;67324;56.326;43.982;2023-05-10T09:01:15;101523.66;;;16.26;41.52
74678;BME280;67324;56.326;43.982;2023-05-10T09:03:42;101522.63;;;16.29;41.62
74678;BME280;67324;56.326;43.982;2023-05-10T09:06:09;101519.09;;;16.30;41.50
74678;BME280;67324;56.326;43.982;2023-05-10T09:08:37;101518.97;;;16.31;41.56
74678;BME280;67324;56.326;43.982;2023-05-10T09:11:03;101506.13;;;16.28;41.59
74678;BME280;67324;56.326;43.982;2023-05-10T09:13:29;101506.75;;;16.32;41.62
74678;BME280;67324;56.326;43.982;2023-05-10T09:15:55;101504.88;;;16.34;41.64
74678;BME280;67324;56.326;43.982;2023-05-10T09:18:21;101504.06;;;16.33;41.64
74678;BME280;67324;56.326;43.982;2023-05-10T09:20:48;101491.19;;;16.30;41.34
74678;BME280;67324;56.326;43.982;2023-05-10T09:23:14;101489.34;;;16.32;41.52
74678;BME280;67324;56.326;43.982;2023-05-10T09:25:41;101490.16;;;16.33;41.69
74678;BME280;67324;56.326;43.982;2023-05-10T09:28:08;101479.59;;;16.34;41.87
74678;BME280;67324;56.326;43.982;2023-05-10T09:30:35;101487.97;;;16.40;42.59
74678;BME280;67324;56.326;43.982;2023-05-10T09:33:01;101491.16;;;16.45;42.87
74678;BME280;67324;56.326;43.982;2023-05-10T09:35:29;101490.97;;;16.48;42.40
74678;BME280;67324;56.326;43.982;2023-05-10T09:37:59;101489.09;;;16.50;42.44
74678;BME280;67324;56.326;43.982;2023-05-10T09:40:27;101481.97;;;16.52;43.18
74678;BME280;67324;56.326;43.982;2023-05-10T09:43:08;101487.03;;;16.55;39.77
74678;BME280;67324;56.326;43.982;2023-05-10T09:45:36;101470.50;;;16.54;42.95
74678;BME280;67324;56.326;43.982;2023-05-10T09:48:03;101470.31;;;16.57;42.56
74678;BME280;67324;56.326;43.982;2023-05-10T09:50:29;101462.03;;;16.51;40.37
74678;BME280;67324;56.326;43.982;2023-05-10T09:55:37;101467.88;;;16.54;39.68
74678;BME280;67324;56.326;43.982;2023-05-10T09:58:04;101463.22;;;16.60;39.36
74678;BME280;67324;56.326;43.982;2023-05-10T10:00:40;101459.56;;;16.62;39.64
74678;BME280;67324;56.326;43.982;2023-05-10T10:03:15;101461.03;;;16.66;40.75
74678;BME280;67324;56.326;43.982;2023-05-10T10:05:42;101456.34;;;16.71;41.17
74678;BME280;67324;56.326;43.982;2023-05-10T10:08:09;101445.72;;;16.74;41.84
74678;BME280;67324;56.326;43.982;2023-05-10T10:10:35;101436.28;;;16.72;42.24
74678;BME280;67324;56.326;43.982;2023-05-10T10:13:02;101442.97;;;16.76;42.47
74678;BME280;67324;56.326;43.982;2023-05-10T10:15:28;101444.50;;;16.80;42.34
74678;BME280;67324;56.326;43.982;2023-05-10T10:17:54;101443.44;;;16.83;42.55
74678;BME280;67324;56.326;43.982;2023-05-10T10:20:21;101440.84;;;16.83;42.48
74678;BME280;67324;56.326;43.982;2023-05-10T10:22:48;101441.75;;;16.82;42.26
74678;BME280;67324;56.326;43.982;2023-05-10T10:25:15;101446.81;;;16.85;42.17
74678;BME280;67324;56.326;43.982;2023-05-10T10:27:49;101440.63;;;16.86;42.37
74678;BME280;67324;56.326;43.982;2023-05-10T10:35:29;101425.69;;;16.88;42.41
74678;BME280;67324;56.326;43.982;2023-05-10T10:37:56;101430.69;;;16.91;40.97
74678;BME280;67324;56.326;43.982;2023-05-10T10:40:41;101428.09;;;16.91;40.18
74678;BME280;67324;56.326;43.982;2023-05-10T10:43:24;101416.28;;;16.85;37.12
74678;BME280;67324;56.326;43.982;2023-05-10T10:46:12;101418.53;;;16.77;36.28
74678;BME280;67324;56.326;43.982;2023-05-10T10:49:09;101408.00;;;16.78;37.63
74678;BME280;67324;56.326;43.982;2023-05-10T10:51:39;101402.69;;;16.80;37.39
74678;BME280;67324;56.326;43.982;2023-05-10T10:54:09;101411.88;;;16.86;37.72
74678;BME280;67324;56.326;43.982;2023-05-10T10:57:20;101410.94;;;16.87;38.39
74678;BME280;67324;56.326;43.982;2023-05-10T10:59:56;101407.41;;;16.88;38.73
74678;BME280;67324;56.326;43.982;2023-05-10T11:05:40;101402.59;;;16.94;40.14
74678;BME280;67324;56.326;43.982;2023-05-10T11:08:33;101408.34;;;16.99;39.64
74678;BME280;67324;56.326;43.982;2023-05-10T11:16:21;101384.09;;;17.10;40.78
74678;BME280;67324;56.326;43.982;2023-05-10T11:19:09;101391.72;;;17.13;41.36
74678;BME280;67324;56.326;43.982;2023-05-10T11:21:46;101387.31;;;17.14;41.41
74678;BME280;67324;56.326;43.982;2023-05-10T11:24:18;101383.66;;;17.16;41.81
74678;BME280;67324;56.326;43.982;2023-05-10T11:26:45;101372.38;;;17.16;42.31
74678;BME280;67324;56.326;43.982;2023-05-10T11:29:13;101366.81;;;17.20;42.49
74678;BME280;67324;56.326;43.982;2023-05-10T11:31:43;101363.47;;;17.18;42.68
74678;BME280;67324;56.326;43.982;2023-05-10T11:34:10;101358.97;;;17.20;42.72
74678;BME280;67324;56.326;43.982;2023-05-10T11:36:36;101362.31;;;17.22;42.83
74678;BME280;67324;56.326;43.982;2023-05-10T11:39:04;101353.53;;;17.23;43.11
74678;BME280;67324;56.326;43.982;2023-05-10T11:41:31;101364.63;;;17.27;43.18
74678;BME280;67324;56.326;43.982;2023-05-10T11:43:57;101352.59;;;17.25;43.33
74678;BME280;67324;56.326;43.982;2023-05-10T11:46:25;101345.50;;;17.27;43.26
74678;BME280;67324;56.326;43.982;2023-05-10T11:48:55;101353.34;;;17.27;43.09
74678;BME280;67324;56.326;43.982;2023-05-10T11:51:23;101351.66;;;17.26;43.00
74678;BME280;67324;56.326;43.982;2023-05-10T11:53:50;101344.03;;;17.22;43.05
74678;BME280;67324;56.326;43.982;2023-05-10T11:56:17;101336.41;;;17.19;42.97
74678;BME280;67324;56.326;43.982;2023-05-10T11:58:43;101344.25;;;17.19;43.00
74678;BME280;67324;56.326;43.982;2023-05-10T12:01:09;101346.00;;;17.19;42.99
74678;BME280;67324;56.326;43.982;2023-05-10T12:03:36;101341.63;;;17.19;42.86
74678;BME280;67324;56.326;43.982;2023-05-10T12:06:03;101328.03;;;17.14;42.96
74678;BME280;67324;56.326;43.982;2023-05-10T12:08:30;101335.66;;;17.17;43.08
74678;BME280;67324;56.326;43.982;2023-05-10T12:11:07;101332.22;;;17.17;42.86
74678;BME280;67324;56.326;43.982;2023-05-10T12:13:41;101328.13;;;17.13;42.88
74678;BME280;67324;56.326;43.982;2023-05-10T12:16:15;101319.47;;;17.12;42.93
74678;BME280;67324;56.326;43.982;2023-05-10T12:19:00;101322.09;;;17.12;42.81
74678;BME280;67324;56.326;43.982;2023-05-10T12:21:28;101320.19;;;17.14;42.79
74678;BME280;67324;56.326;43.982;2023-05-10T12:24:01;101325.44;;;17.14;42.75
74678;BME280;67324;56.326;43.982;2023-05-10T12:26:28;101327.19;;;17.14;42.75
74678;BME280;67324;56.326;43.982;2023-05-10T12:28:55;101323.75;;;17.13;42.81
74678;BME280;67324;56.326;43.982;2023-05-10T12:31:53;101316.13;;;17.10;42.87
74678;BME280;67324;56.326;43.982;2023-05-10T12:34:38;101313.50;;;17.10;42.73
74678;BME280;67324;56.326;43.982;2023-05-10T12:37:24;101309.22;;;17.09;42.93
74678;BME280;67324;56.326;43.982;2023-05-10T12:39:53;101310.66;;;17.13;42.72
74678;BME280;67324;56.326;43.982;2023-05-10T12:42:18;101306.72;;;17.08;42.57
74678;BME280;67324;56.326;43.982;2023-05-10T12:44:44;101311.84;;;17.09;42.67
74678;BME280;67324;56.326;43.982;2023-05-10T12:47:10;101314.25;;;17.12;42.81
74678;BME280;67324;56.326;43.982;2023-05-10T12:49:36;101304.00;;;17.09;42.78
74678;BME280;67324;56.326;43.982;2023-05-10T12:52:02;101305.44;;;17.13;42.91
74678;BME280;67324;56.326;43.982;2023-05-10T12:54:28;101308.06;;;17.13;42.82
74678;BME280;67324;56.326;43.982;2023-05-10T12:56:55;101306.28;;;17.14;42.87
74678;BME280;67324;56.326;43.982;2023-05-10T12:59:21;101297.72;;;17.12;42.80
74678;BME280;67324;56.326;43.982;2023-05-10T13:01:46;101294.25;;;17.11;42.91
74678;BME280;67324;56.326;43.982;2023-05-10T13:04:12;101296.69;;;17.14;43.00
74678;BME280;67324;56.326;43.982;2023-05-10T13:06:38;101301.91;;;17.14;43.01
74678;BME280;67324;56.326;43.982;2023-05-10T13:09:04;101296.78;;;17.13;42.96
74678;BME280;67324;56.326;43.982;2023-05-10T13:11:30;101288.94;;;17.13;42.85
74678;BME280;67324;56.326;43.982;2023-05-10T13:13:57;101293.00;;;17.17;42.95
74678;BME280;67324;56.326;43.982;2023-05-10T13:16:23;101292.16;;;17.16;42.71
74678;BME280;67324;56.326;43.982;2023-05-10T13:18:48;101294.75;;;17.16;42.87
74678;BME280;67324;56.326;43.982;2023-05-10T13:21:14;101297.38;;;17.16;42.69
74678;BME280;67324;56.326;43.982;2023-05-10T13:23:40;101293.94;;;17.16;42.80